MV Moseldijk — PBWK — position and weather

sailwx.info

Track history (hours):
 
Tides and Currents Weather Stations Pressure Air Temp Water Temp Dewpoint Dewpoint Depression Visibility Wind Speed Wind Dir Waves Ship Positions

MV Moseldijk

Last reported at 2015-Jul-31 12:33 UTC. Time now 2015-Jul-31 15:25 UTC.
Position N 39°19' W 009°50'.

Length 90 m; draft 6.2 m.

Type: Cargo ship. MMSI: 246644000.

Date/timePositionNaut miles runAvg speedWind from/ knotsBaromVisibWave heightAir tempDewpointWater temp
2015-Jul-31 12:33N 39°19' W 009°50'10 9.8
2015-Jul-31 11:33N 39°09' W 009°50'10 9.8
2015-Jul-31 10:33N 38°59' W 009°50'1010.2
2015-Jul-31 09:33N 38°49' W 009°51'1010.2
2015-Jul-31 08:33N 38°39' W 009°49'10 9.7
2015-Jul-31 07:33N 38°29' W 009°46'10 9.8
2015-Jul-31 06:33N 38°20' W 009°44'10 9.8
2015-Jul-31 05:33N 38°10' W 009°41'22 9.5
2015-Jul-31 03:13N 37°49' W 009°34'7 9.9
2015-Jul-31 02:30N 37°42' W 009°32'229 8.7
2015-Jul-30 00:19N 35°56' W 005°19'2 2.8
2015-Jul-29 23:33N 35°54' W 005°18'0 0.0
2015-Jul-29 22:25N 35°54' W 005°18'0 0.0
2015-Jul-29 21:33N 35°54' W 005°18'0 0.0
2015-Jul-29 20:33N 35°54' W 005°18'138 9.6
2015-Jul-29 06:08N 36°06' W 002°28'2211.3
2015-Jul-29 04:11N 36°10' W 002°01'710.9
2015-Jul-29 03:33N 36°10' W 001°52'7710.7
2015-Jul-28 20:20N 36°22' W 000°17'810.5
2015-Jul-28 19:33N 36°24' W 000°08'1110.7
2015-Jul-28 18:34N 36°27' E 000°05'1110.9
2015-Jul-28 17:33N 36°30' E 000°18'1110.8
2015-Jul-28 16:33N 36°34' E 000°30'1110.8
2015-Jul-28 15:33N 36°37' E 000°43'1110.7
2015-Jul-28 14:32N 36°41' E 000°56'1010.3
2015-Jul-28 13:33N 36°44' E 001°08'2711.4
2015-Jul-28 11:10N 36°51' E 001°41'2111.2
2015-Jul-28 09:17N 36°54' E 002°07'7310.8
2015-Jul-28 02:28N 37°05' E 003°38'1010.5
2015-Jul-28 01:29N 37°06' E 003°51'1010.5
2015-Jul-28 00:30N 37°08' E 004°03'5811.0
2015-Jul-27 19:12N 37°15' E 005°16'711.0
2015-Jul-27 18:32N 37°16' E 005°25'29010.4
2015-Jul-26 14:31N 37°21' E 011°30'1610.8
2015-Jul-26 13:04N 37°16' E 011°48'510.8
2015-Jul-26 12:33N 37°14' E 011°54'1110.6
2015-Jul-26 11:33N 37°11' E 012°07'1110.7
2015-Jul-26 10:33N 37°07' E 012°20'1010.5
2015-Jul-26 09:33N 37°04' E 012°32'1110.3
2015-Jul-26 08:28N 37°01' E 012°46'1910.0
2015-Jul-26 06:33N 36°55' E 013°08'1110.1
2015-Jul-26 05:30N 36°51' E 013°21'1010.4
2015-Jul-26 04:33N 36°47' E 013°32'1110.5
2015-Jul-26 03:30N 36°43' E 013°46'1010.9
2015-Jul-26 02:33N 36°40' E 013°58'1111.2
2015-Jul-26 01:33N 36°37' E 014°11'1111.1
2015-Jul-26 00:33N 36°34' E 014°24'1111.0
2015-Jul-25 23:33N 36°30' E 014°37'3210.8
2015-Jul-25 20:32N 36°29' E 015°18'1110.7
2015-Jul-25 19:30N 36°29' E 015°31'  
2015-Jul-22 22:07N 40°54' E 028°47'711.4
2015-Jul-22 21:32N 40°56' E 028°55'  
Track history (hours):
 
Tides and Currents Weather Stations Pressure Air Temp Water Temp Dewpoint Dewpoint Depression Visibility Wind Speed Wind Dir Waves Ship Positions

MV Moseldijk

Last reported at 2015-Jul-31 12:33 UTC. Time now 2015-Jul-31 15:25 UTC.
Position N 39°19' W 009°50'.

Length 90 m; draft 6.2 m.

Type: Cargo ship. MMSI: 246644000.

Date/timePositionNaut miles runAvg speedWind from/ knotsBaromVisibWave heightAir tempDewpointWater temp
2015-Jul-31 12:33N 39°19' W 009°50'10 9.8
2015-Jul-31 11:33N 39°09' W 009°50'10 9.8
2015-Jul-31 10:33N 38°59' W 009°50'1010.2
2015-Jul-31 09:33N 38°49' W 009°51'1010.2
2015-Jul-31 08:33N 38°39' W 009°49'10 9.7
2015-Jul-31 07:33N 38°29' W 009°46'10 9.8
2015-Jul-31 06:33N 38°20' W 009°44'10 9.8
2015-Jul-31 05:33N 38°10' W 009°41'22 9.5
2015-Jul-31 03:13N 37°49' W 009°34'7 9.9
2015-Jul-31 02:30N 37°42' W 009°32'229 8.7
2015-Jul-30 00:19N 35°56' W 005°19'2 2.8
2015-Jul-29 23:33N 35°54' W 005°18'0 0.0
2015-Jul-29 22:25N 35°54' W 005°18'0 0.0
2015-Jul-29 21:33N 35°54' W 005°18'0 0.0
2015-Jul-29 20:33N 35°54' W 005°18'138 9.6
2015-Jul-29 06:08N 36°06' W 002°28'2211.3
2015-Jul-29 04:11N 36°10' W 002°01'710.9
2015-Jul-29 03:33N 36°10' W 001°52'7710.7
2015-Jul-28 20:20N 36°22' W 000°17'810.5
2015-Jul-28 19:33N 36°24' W 000°08'1110.7
2015-Jul-28 18:34N 36°27' E 000°05'1110.9
2015-Jul-28 17:33N 36°30' E 000°18'1110.8
2015-Jul-28 16:33N 36°34' E 000°30'1110.8
2015-Jul-28 15:33N 36°37' E 000°43'1110.7
2015-Jul-28 14:32N 36°41' E 000°56'1010.3
2015-Jul-28 13:33N 36°44' E 001°08'2711.4
2015-Jul-28 11:10N 36°51' E 001°41'2111.2
2015-Jul-28 09:17N 36°54' E 002°07'7310.8
2015-Jul-28 02:28N 37°05' E 003°38'1010.5
2015-Jul-28 01:29N 37°06' E 003°51'1010.5
2015-Jul-28 00:30N 37°08' E 004°03'5811.0
2015-Jul-27 19:12N 37°15' E 005°16'711.0
2015-Jul-27 18:32N 37°16' E 005°25'29010.4
2015-Jul-26 14:31N 37°21' E 011°30'1610.8
2015-Jul-26 13:04N 37°16' E 011°48'510.8
2015-Jul-26 12:33N 37°14' E 011°54'1110.6
2015-Jul-26 11:33N 37°11' E 012°07'1110.7
2015-Jul-26 10:33N 37°07' E 012°20'1010.5
2015-Jul-26 09:33N 37°04' E 012°32'1110.3
2015-Jul-26 08:28N 37°01' E 012°46'1910.0
2015-Jul-26 06:33N 36°55' E 013°08'1110.1
2015-Jul-26 05:30N 36°51' E 013°21'1010.4
2015-Jul-26 04:33N 36°47' E 013°32'1110.5
2015-Jul-26 03:30N 36°43' E 013°46'1010.9
2015-Jul-26 02:33N 36°40' E 013°58'1111.2
2015-Jul-26 01:33N 36°37' E 014°11'1111.1
2015-Jul-26 00:33N 36°34' E 014°24'1111.0
2015-Jul-25 23:33N 36°30' E 014°37'3210.8
2015-Jul-25 20:32N 36°29' E 015°18'1110.7
2015-Jul-25 19:30N 36°29' E 015°31'  
2015-Jul-22 22:07N 40°54' E 028°47'711.4
2015-Jul-22 21:32N 40°56' E 028°55'  

Dump ship's entire track history